Time;durP1;ratioP1;P1;durP2;ratioP2;P2;SDS_P1;SDS_P2;PMS_P1;PMS_P2;Temp;Humidity;BMP_temperature;BMP_pressure;BME280_temperature;BME280_humidity;BME280_pressure;Samples;Min_cycle;Max_cycle;Signal;HPM_P1;HPM_P2
2022/02/28 00:00:55;;;;;;;13.20;5.90;;;;;;;-0.52;75.22;101014.01;109268;1276;22474;-54
2022/02/28 00:03:29;;;;;;;11.30;5.50;;;;;;;-0.50;75.34;101020.57;109102;1276;138379;-54
2022/02/28 00:05:57;;;;;;;9.80;5.10;;;;;;;-0.49;75.50;101015.89;108873;1276;459893;-54
2022/02/28 00:10:10;;;;;;;12.90;5.30;;;;;;;-0.45;75.59;101018.45;101885;1309;545188;-54
2022/02/28 00:12:40;;;;;;;10.20;4.80;;;;;;;-0.43;75.68;101014.91;108573;1283;23523;-54
2022/02/28 00:15:09;;;;;;;9.70;4.60;;;;;;;-0.40;75.75;101014.80;108216;1283;137531;-54
2022/02/28 00:17:38;;;;;;;13.00;5.10;;;;;;;-0.37;75.70;101016.29;108116;1288;22542;-60
2022/02/28 00:20:07;;;;;;;10.60;4.60;;;;;;;-0.34;75.81;101015.96;108167;1287;138119;-55
2022/02/28 00:22:36;;;;;;;10.70;4.60;;;;;;;-0.29;75.76;101012.50;108269;1286;23266;-54
2022/02/28 00:25:05;;;;;;;10.50;4.40;;;;;;;-0.25;75.65;101015.34;107993;1284;137960;-55
2022/02/28 00:27:54;;;;;;;10.70;4.60;;;;;;;-0.21;75.79;101017.97;108467;1284;23345;-54
2022/02/28 00:30:22;;;;;;;7.70;4.50;;;;;;;-0.19;75.75;101017.33;108463;1284;22488;-54
2022/02/28 00:32:50;;;;;;;11.90;5.60;;;;;;;-0.17;75.72;101014.27;108448;1283;137857;-55
2022/02/28 00:35:20;;;;;;;9.80;5.00;;;;;;;-0.15;75.84;101017.70;108554;1283;22458;-55
2022/02/28 00:37:48;;;;;;;10.10;4.40;;;;;;;-0.13;75.65;101017.83;108298;1283;137335;-55
2022/02/28 00:40:16;;;;;;;10.80;4.40;;;;;;;-0.14;75.62;101018.56;108411;1284;22432;-55
2022/02/28 00:42:45;;;;;;;11.00;4.80;;;;;;;-0.14;75.82;101014.31;108576;1283;23047;-55
2022/02/28 00:45:13;;;;;;;10.80;4.60;;;;;;;-0.14;75.63;101013.94;108335;1283;138111;-55
2022/02/28 00:47:41;;;;;;;8.00;4.60;;;;;;;-0.15;75.38;101011.91;108489;1285;22552;-55
2022/02/28 00:50:10;;;;;;;10.60;4.70;;;;;;;-0.17;75.50;101009.50;108199;1285;139154;-55
2022/02/28 00:52:39;;;;;;;10.80;4.40;;;;;;;-0.16;75.24;101014.41;108382;1284;22451;-54
2022/02/28 00:55:09;;;;;;;6.80;3.90;;;;;;;-0.17;75.55;101013.60;108288;1285;138283;-55
2022/02/28 00:57:37;;;;;;;8.60;4.30;;;;;;;-0.18;75.55;101018.48;108353;1284;22572;-54
2022/02/28 01:00:07;;;;;;;8.70;4.20;;;;;;;-0.19;75.46;101019.13;108338;1285;23551;-54
2022/02/28 01:02:36;;;;;;;8.50;4.30;;;;;;;-0.19;75.25;101018.59;108284;1284;137564;-55
2022/02/28 01:05:08;;;;;;;9.40;4.30;;;;;;;-0.22;75.29;101016.05;108400;1284;22267;-55
2022/02/28 01:07:38;;;;;;;11.30;4.80;;;;;;;-0.20;75.05;101022.29;108281;1286;136875;-55
2022/02/28 01:10:08;;;;;;;9.30;5.30;;;;;;;-0.21;75.25;101021.34;108311;1286;23297;-55
2022/02/28 01:12:40;;;;;;;9.30;5.20;;;;;;;-0.23;75.47;101023.33;108294;1285;22484;-55
2022/02/28 01:15:10;;;;;;;15.00;7.40;;;;;;;-0.26;75.29;101022.36;108282;1285;137519;-55
2022/02/28 01:17:38;;;;;;;15.40;8.20;;;;;;;-0.29;74.85;101022.67;108078;1287;22473;-56
2022/02/28 01:20:07;;;;;;;14.70;7.00;;;;;;;-0.32;75.02;101021.57;109059;1277;137835;-55
2022/02/28 01:22:36;;;;;;;13.20;7.70;;;;;;;-0.35;75.29;101023.61;109077;1277;22264;-55
2022/02/28 01:25:09;;;;;;;14.90;7.60;;;;;;;-0.40;75.17;101029.06;108963;1277;138082;-55
2022/02/28 01:27:38;;;;;;;15.60;8.30;;;;;;;-0.45;75.14;101027.23;109175;1277;22553;-55
2022/02/28 01:30:07;;;;;;;11.30;6.30;;;;;;;-0.48;75.33;101025.55;109233;1277;23020;-55
2022/02/28 01:32:39;;;;;;;15.00;8.10;;;;;;;-0.50;75.25;101023.05;108961;1277;138507;-55
2022/02/28 01:35:09;;;;;;;10.80;6.10;;;;;;;-0.51;75.18;101019.61;108958;1280;22412;-55
2022/02/28 01:37:38;;;;;;;9.40;5.20;;;;;;;-0.52;75.27;101018.83;108933;1278;139820;-55
2022/02/28 01:40:07;;;;;;;12.10;7.90;;;;;;;-0.53;75.23;101019.77;109013;1278;22475;-55
2022/02/28 01:42:35;;;;;;;14.80;7.40;;;;;;;-0.53;75.37;101020.73;109015;1278;22513;-55
2022/02/28 01:45:04;;;;;;;12.60;7.70;;;;;;;-0.55;75.23;101021.94;108836;1280;139310;-55
2022/02/28 01:47:32;;;;;;;13.70;8.10;;;;;;;-0.55;75.15;101023.38;109057;1277;22585;-55
2022/02/28 01:50:01;;;;;;;16.40;11.00;;;;;;;-0.55;75.06;101019.15;108813;1277;137596;-54
2022/02/28 01:52:29;;;;;;;25.70;14.50;;;;;;;-0.56;75.24;101020.25;108808;1281;23163;-54
2022/02/28 01:54:57;;;;;;;17.80;9.10;;;;;;;-0.57;74.99;101026.60;108957;1280;22548;-55
2022/02/28 01:57:25;;;;;;;11.60;6.20;;;;;;;-0.59;74.77;101029.67;108799;1279;137175;-54
2022/02/28 01:59:53;;;;;;;11.80;5.70;;;;;;;-0.64;74.96;101028.90;108907;1280;22485;-55
2022/02/28 02:02:21;;;;;;;11.90;5.60;;;;;;;-0.67;74.85;101031.02;108884;1278;137160;-54
2022/02/28 02:04:50;;;;;;;14.30;5.90;;;;;;;-0.72;75.00;101024.52;108949;1280;22580;-54
2022/02/28 02:07:19;;;;;;;11.80;5.50;;;;;;;-0.77;74.86;101019.85;108827;1280;137961;-54
2022/02/28 02:09:47;;;;;;;11.00;5.40;;;;;;;-0.78;74.73;101022.83;108955;1280;22518;-54
2022/02/28 02:12:16;;;;;;;7.90;4.70;;;;;;;-0.82;74.80;101022.88;108752;1281;22464;-54
2022/02/28 02:14:45;;;;;;;11.80;5.00;;;;;;;-0.87;74.89;101022.11;108714;1277;137780;-54
2022/02/28 02:17:13;;;;;;;10.90;5.00;;;;;;;-0.93;74.87;101020.31;109006;1277;22481;-54
2022/02/28 02:19:41;;;;;;;11.50;4.10;;;;;;;-1.00;74.91;101026.52;108794;1280;152187;-53
2022/02/28 02:22:09;;;;;;;7.80;3.70;;;;;;;-1.05;75.42;101032.60;108664;1281;22415;-53
2022/02/28 02:24:37;;;;;;;10.80;4.40;;;;;;;-1.07;75.58;101041.14;108889;1281;23246;-54
2022/02/28 02:27:06;;;;;;;9.50;5.40;;;;;;;-1.08;75.89;101042.41;108806;1277;139348;-54
2022/02/28 02:29:37;;;;;;;12.80;4.20;;;;;;;-1.09;76.00;101042.20;109065;1277;23116;-54
2022/02/28 02:32:10;;;;;;;9.50;4.50;;;;;;;-1.10;76.13;101040.18;109079;1277;138258;-54
2022/02/28 02:34:39;;;;;;;10.00;4.50;;;;;;;-1.12;76.21;101045.84;108934;1278;23222;-54
2022/02/28 02:37:06;;;;;;;10.90;4.60;;;;;;;-1.13;76.38;101045.27;108969;1277;137528;-54
2022/02/28 02:39:38;;;;;;;7.50;3.70;;;;;;;-1.17;76.42;101040.98;109182;1277;22440;-54
2022/02/28 02:42:07;;;;;;;9.20;4.20;;;;;;;-1.19;76.46;101039.95;108921;1278;22479;-55
2022/02/28 02:44:35;;;;;;;9.30;4.20;;;;;;;-1.22;76.76;101043.41;108943;1277;137141;-55
2022/02/28 02:47:03;;;;;;;10.60;4.50;;;;;;;-1.26;76.66;101040.45;109109;1276;22468;-55
2022/02/28 02:49:57;;;;;;;8.10;4.50;;;;;;;-1.28;76.65;101039.55;108912;1278;138450;-54
2022/02/28 02:52:25;;;;;;;7.10;3.30;;;;;;;-1.30;76.74;101034.06;109017;1277;22442;-55
2022/02/28 02:54:53;;;;;;;7.60;3.90;;;;;;;-1.32;76.91;101035.53;108767;1281;22426;-55
2022/02/28 02:57:23;;;;;;;8.50;3.60;;;;;;;-1.34;77.03;101035.56;108909;1279;139115;-55
2022/02/28 02:59:51;;;;;;;7.60;3.80;;;;;;;-1.37;77.09;101038.06;109224;1277;23327;-54
2022/02/28 03:02:19;;;;;;;7.40;4.00;;;;;;;-1.37;77.20;101036.13;108771;1280;138554;-54
2022/02/28 03:04:48;;;;;;;6.20;3.00;;;;;;;-1.39;77.30;101034.72;108934;1277;22580;-54
2022/02/28 03:07:17;;;;;;;7.90;4.50;;;;;;;-1.38;77.31;101038.41;108907;1277;140740;-55
2022/02/28 03:09:45;;;;;;;10.10;3.90;;;;;;;-1.36;77.40;101042.98;108989;1277;22594;-54
2022/02/28 03:12:14;;;;;;;8.00;3.60;;;;;;;-1.35;77.54;101040.98;108965;1278;23026;-54
2022/02/28 03:14:45;;;;;;;7.10;3.50;;;;;;;-1.37;77.58;101038.29;108684;1279;139449;-55
2022/02/28 03:17:13;;;;;;;7.80;3.40;;;;;;;-1.41;77.79;101042.00;108864;1280;22259;-55
2022/02/28 03:19:41;;;;;;;7.60;3.50;;;;;;;-1.42;77.71;101041.80;108913;1277;138286;-54
2022/02/28 03:22:10;;;;;;;9.50;4.30;;;;;;;-1.45;77.77;101040.98;108973;1277;23673;-54
2022/02/28 03:24:41;;;;;;;6.60;3.70;;;;;;;-1.47;77.46;101034.27;109049;1277;22600;-54
2022/02/28 03:27:10;;;;;;;6.40;3.50;;;;;;;-1.48;77.64;101035.73;108719;1280;139226;-54
2022/02/28 03:29:38;;;;;;;7.50;3.60;;;;;;;-1.48;77.71;101035.02;108958;1278;22500;-54
2022/02/28 03:32:06;;;;;;;5.40;3.10;;;;;;;-1.48;77.72;101036.33;108886;1277;138197;-54
2022/02/28 03:34:35;;;;;;;7.20;3.70;;;;;;;-1.52;77.71;101035.77;109011;1277;23212;-54
2022/02/28 03:37:03;;;;;;;6.30;3.10;;;;;;;-1.53;77.55;101036.34;108940;1277;23616;-54
2022/02/28 03:39:31;;;;;;;6.40;3.40;;;;;;;-1.55;77.48;101034.57;108812;1279;138708;-54
2022/02/28 03:42:01;;;;;;;6.80;3.70;;;;;;;-1.54;77.66;101036.80;108903;1280;22446;-54
2022/02/28 03:44:31;;;;;;;5.80;3.40;;;;;;;-1.53;77.71;101034.99;108993;1277;137904;-54
2022/02/28 03:47:03;;;;;;;7.10;3.80;;;;;;;-1.55;77.45;101032.44;109061;1277;23191;-54
2022/02/28 03:49:59;;;;;;;7.00;3.50;;;;;;;-1.53;77.55;101029.12;108542;1280;138969;-54
2022/02/28 03:52:32;;;;;;;9.60;3.70;;;;;;;-1.56;77.58;101025.98;108969;1277;22494;-55
2022/02/28 03:55:15;;;;;;;8.60;4.20;;;;;;;-1.53;77.52;101031.90;109083;1277;139185;-54
2022/02/28 03:57:43;;;;;;;4.50;2.90;;;;;;;-1.55;77.40;101034.77;109209;1277;22531;-54
2022/02/28 04:00:11;;;;;;;8.70;3.20;;;;;;;-1.57;77.37;101035.47;109024;1277;22573;-54
2022/02/28 04:02:42;;;;;;;7.60;4.00;;;;;;;-1.58;77.42;101034.91;109105;1277;137734;-53
2022/02/28 04:05:11;;;;;;;6.20;3.20;;;;;;;-1.59;77.28;101034.98;108947;1277;22467;-55
2022/02/28 04:07:41;;;;;;;7.20;3.30;;;;;;;-1.60;77.23;101037.43;108912;1278;137896;-55
2022/02/28 04:10:09;;;;;;;4.50;2.80;;;;;;;-1.61;77.36;101038.98;108919;1280;23195;-54
2022/02/28 04:12:45;;;;;;;4.80;3.30;;;;;;;-1.61;77.23;101043.42;109002;1277;22490;-54
2022/02/28 04:15:13;;;;;;;8.60;3.50;;;;;;;-1.63;77.34;101049.67;108875;1277;137097;-54
2022/02/28 04:17:43;;;;;;;7.50;3.80;;;;;;;-1.65;77.27;101048.58;108944;1277;22282;-54
2022/02/28 04:20:40;;;;;;;5.60;2.90;;;;;;;-1.67;77.19;101047.86;108874;1277;138371;-54
2022/02/28 04:23:08;;;;;;;6.20;3.10;;;;;;;-1.71;77.03;101050.95;108981;1277;22460;-54
2022/02/28 04:25:36;;;;;;;7.60;3.20;;;;;;;-1.75;76.92;101056.32;108810;1279;139148;-54
2022/02/28 04:28:05;;;;;;;7.60;3.10;;;;;;;-1.79;77.20;101059.65;108962;1277;23212;-55
2022/02/28 04:30:33;;;;;;;5.10;2.70;;;;;;;-1.82;77.23;101059.94;108994;1277;23285;-54
2022/02/28 04:33:01;;;;;;;7.70;2.90;;;;;;;-1.85;77.41;101059.26;108928;1277;138275;-55
2022/02/28 04:35:30;;;;;;;9.40;3.80;;;;;;;-1.84;77.45;101063.98;108994;1278;22473;-54
2022/02/28 04:38:09;;;;;;;5.50;2.50;;;;;;;-1.81;77.39;101071.39;108900;1276;138090;-55
2022/02/28 04:40:37;;;;;;;10.00;3.40;;;;;;;-1.80;77.31;101075.43;109205;1277;23651;-55
2022/02/28 04:43:07;;;;;;;6.60;3.40;;;;;;;-1.84;77.12;101074.33;108943;1277;22497;-55
2022/02/28 04:45:35;;;;;;;6.90;3.50;;;;;;;-1.88;77.12;101076.90;108875;1277;138102;-55
2022/02/28 04:48:04;;;;;;;5.80;3.10;;;;;;;-1.92;77.13;101077.58;108974;1277;22557;-55
2022/02/28 04:50:35;;;;;;;6.90;3.10;;;;;;;-1.95;76.97;101078.91;108832;1277;138003;-55
2022/02/28 04:53:03;;;;;;;8.90;4.80;;;;;;;-1.99;77.20;101079.68;108884;1280;22252;-55
2022/02/28 04:55:31;;;;;;;6.50;3.90;;;;;;;-2.05;76.97;101083.39;108836;1277;137588;-55
2022/02/28 04:57:59;;;;;;;8.30;4.10;;;;;;;-2.09;77.07;101090.90;108976;1277;22494;-55
2022/02/28 05:00:48;;;;;;;5.50;3.30;;;;;;;-2.12;77.31;101086.05;109007;1277;22420;-55
2022/02/28 05:03:25;;;;;;;6.60;4.00;;;;;;;-2.13;77.45;101086.97;108901;1277;138167;-55
2022/02/28 05:05:56;;;;;;;5.70;2.80;;;;;;;-2.15;77.55;101086.02;109052;1277;22468;-55
2022/02/28 05:08:24;;;;;;;4.40;2.30;;;;;;;-2.13;77.61;101092.14;108870;1280;138069;-55
2022/02/28 05:10:53;;;;;;;5.20;3.30;;;;;;;-2.13;77.50;101086.63;108655;1279;22507;-55
2022/02/28 05:13:21;;;;;;;7.80;3.00;;;;;;;-2.14;77.67;101088.10;108939;1278;139300;-53
2022/02/28 05:15:49;;;;;;;4.60;3.00;;;;;;;-2.14;77.68;101087.24;108847;1280;22426;-54
2022/02/28 05:18:17;;;;;;;4.40;3.10;;;;;;;-2.17;77.86;101088.21;108940;1278;22487;-54
2022/02/28 05:20:45;;;;;;;5.50;3.30;;;;;;;-2.17;77.92;101089.11;109013;1277;138476;-55
2022/02/28 05:23:14;;;;;;;5.50;3.10;;;;;;;-2.18;78.06;101094.38;108872;1277;23366;-54
2022/02/28 05:25:43;;;;;;;5.70;3.10;;;;;;;-2.21;78.05;101096.59;108911;1277;138660;-55
2022/02/28 05:28:31;;;;;;;;;;;;;;;-2.23;78.03;101094.86;109039;1277;22480;-55
2022/02/28 05:31:00;;;;;;;5.30;3.00;;;;;;;-2.27;78.23;101099.67;108974;1277;22505;-54
2022/02/28 05:33:28;;;;;;;6.10;3.10;;;;;;;-2.31;78.25;101096.66;108773;1279;137829;-55
2022/02/28 05:35:56;;;;;;;6.10;3.50;;;;;;;-2.33;78.29;101094.73;108998;1278;22631;-54
2022/02/28 05:38:41;;;;;;;6.60;3.20;;;;;;;-2.32;78.32;101095.29;108852;1277;138252;-54
2022/02/28 05:41:10;;;;;;;11.90;3.90;;;;;;;-2.30;78.18;101100.93;108960;1277;22864;-54
2022/02/28 05:43:43;;;;;;;4.90;2.80;;;;;;;-2.28;78.16;101100.27;108868;1277;138658;-55
2022/02/28 05:46:11;;;;;;;8.20;3.00;;;;;;;-2.24;77.99;101102.39;108960;1277;22618;-54
2022/02/28 05:48:50;;;;;;;6.20;3.20;;;;;;;-2.20;77.79;101110.80;108929;1277;22588;-55
2022/02/28 05:51:21;;;;;;;7.20;2.90;;;;;;;-2.16;77.59;101109.70;108854;1277;138991;-55
2022/02/28 05:53:50;;;;;;;4.60;2.40;;;;;;;-2.14;77.18;101110.02;109134;1277;23382;-55
2022/02/28 05:56:18;;;;;;;5.90;2.50;;;;;;;-2.12;76.68;101107.54;109067;1277;138670;-56
2022/02/28 05:58:46;;;;;;;5.40;2.90;;;;;;;-2.11;76.46;101108.70;109201;1277;23518;-54
2022/02/28 06:01:14;;;;;;;4.30;2.40;;;;;;;-2.09;76.23;101106.95;109021;1277;137878;-55
2022/02/28 06:03:42;;;;;;;3.90;2.40;;;;;;;-2.07;75.99;101109.59;109187;1277;22455;-55
2022/02/28 06:06:10;;;;;;;5.70;2.30;;;;;;;-2.06;75.81;101104.00;109138;1277;23530;-55
2022/02/28 06:08:39;;;;;;;5.60;2.30;;;;;;;-2.07;75.81;101105.00;109044;1277;137997;-54
2022/02/28 06:11:07;;;;;;;3.40;2.10;;;;;;;-2.07;75.61;101108.91;109168;1277;23247;-54
2022/02/28 06:13:46;;;;;;;4.80;2.40;;;;;;;-2.06;75.40;101112.58;109017;1277;138737;-54
2022/02/28 06:16:15;;;;;;;4.10;2.70;;;;;;;-2.03;75.49;101113.14;109163;1277;22485;-54
2022/02/28 06:18:43;;;;;;;3.60;1.90;;;;;;;-2.00;75.00;101108.77;109136;1277;23247;-55
2022/02/28 06:21:24;;;;;;;7.40;2.40;;;;;;;-1.98;74.38;101114.30;109060;1277;138049;-55
2022/02/28 06:23:53;;;;;;;5.80;2.30;;;;;;;-1.94;74.46;101117.80;109201;1277;22593;-55
2022/02/28 06:26:21;;;;;;;2.90;2.10;;;;;;;-1.91;74.00;101123.60;109066;1277;139557;-54
2022/02/28 06:28:49;;;;;;;2.10;1.50;;;;;;;-1.88;73.74;101127.28;109166;1277;22496;-55
2022/02/28 06:31:17;;;;;;;3.70;1.80;;;;;;;-1.85;73.16;101131.26;109071;1277;139802;-55
2022/02/28 06:33:45;;;;;;;5.00;1.80;;;;;;;-1.84;73.16;101128.45;109002;1278;22502;-55
2022/02/28 06:36:13;;;;;;;6.30;2.60;;;;;;;-1.78;72.87;101129.91;109002;1277;23263;-55
2022/02/28 06:38:41;;;;;;;3.20;1.90;;;;;;;-1.74;72.30;101131.02;109289;1274;137162;-55
2022/02/28 06:41:10;;;;;;;5.50;2.60;;;;;;;-1.73;71.81;101128.72;109342;1274;23927;-54
2022/02/28 06:43:38;;;;;;;6.30;2.60;;;;;;;-1.71;71.72;101123.09;109286;1274;137540;-56
2022/02/28 06:46:06;;;;;;;5.90;2.10;;;;;;;-1.68;71.67;101125.48;109388;1274;23222;-55
2022/02/28 06:48:34;;;;;;;4.10;2.30;;;;;;;-1.65;71.49;101122.67;109353;1274;22459;-55
2022/02/28 06:51:02;;;;;;;5.40;2.30;;;;;;;-1.62;71.25;101120.67;109289;1274;138731;-55
2022/02/28 06:53:31;;;;;;;3.20;2.10;;;;;;;-1.59;71.14;101121.39;109439;1274;22520;-54
2022/02/28 06:55:59;;;;;;;6.40;2.00;;;;;;;-1.55;71.02;101121.78;109275;1274;139553;-54
2022/02/28 06:58:27;;;;;;;8.10;2.60;;;;;;;-1.51;70.71;101122.44;109371;1274;22528;-54
2022/02/28 07:00:56;;;;;;;4.60;2.50;;;;;;;-1.47;70.79;101126.15;109215;1276;22501;-54
2022/02/28 07:03:41;;;;;;;5.20;2.20;;;;;;;-1.41;70.28;101131.28;109034;1277;138724;-54
2022/02/28 07:06:13;;;;;;;4.10;2.20;;;;;;;-1.36;69.72;101135.82;109275;1276;22482;-54
2022/02/28 07:08:45;;;;;;;5.90;2.60;;;;;;;-1.35;69.36;101133.09;109273;1274;138463;-54
2022/02/28 07:11:13;;;;;;;5.00;2.30;;;;;;;-1.34;68.91;101131.94;109370;1274;22491;-54
2022/02/28 07:13:41;;;;;;;6.30;2.50;;;;;;;-1.31;68.77;101135.73;109343;1274;138477;-54
2022/02/28 07:16:09;;;;;;;8.60;2.50;;;;;;;-1.26;68.80;101137.98;109370;1274;22231;-54
2022/02/28 07:18:38;;;;;;;4.90;2.60;;;;;;;-1.23;68.31;101137.98;109448;1274;23362;-56
2022/02/28 07:21:08;;;;;;;5.60;2.60;;;;;;;-1.19;67.66;101138.57;109314;1274;137406;-55
2022/02/28 07:23:36;;;;;;;3.90;2.40;;;;;;;-1.16;67.19;101136.31;109394;1273;22569;-55
2022/02/28 07:26:04;;;;;;;7.00;3.20;;;;;;;-1.14;67.17;101137.30;109315;1274;137474;-56
2022/02/28 07:28:32;;;;;;;5.50;2.70;;;;;;;-1.11;66.70;101135.95;109419;1274;22432;-55
2022/02/28 07:31:20;;;;;;;5.10;2.10;;;;;;;-1.05;66.87;101137.82;109308;1274;139611;-55
2022/02/28 07:33:48;;;;;;;4.20;2.30;;;;;;;-1.01;65.87;101136.87;109382;1274;22504;-55
2022/02/28 07:36:17;;;;;;;4.60;2.40;;;;;;;-0.98;65.48;101139.26;109241;1276;22398;-55
2022/02/28 07:38:45;;;;;;;7.40;2.20;;;;;;;-0.97;64.98;101137.36;109294;1274;137428;-56
2022/02/28 07:41:13;;;;;;;2.80;2.40;;;;;;;-0.95;64.95;101130.92;109402;1274;22448;-55
2022/02/28 07:43:41;;;;;;;3.80;2.30;;;;;;;-0.93;65.06;101128.31;109273;1274;137816;-56
2022/02/28 07:46:09;;;;;;;4.90;2.60;;;;;;;-0.86;64.99;101134.20;109330;1275;22440;-55
2022/02/28 07:48:37;;;;;;;3.60;2.30;;;;;;;-0.80;64.48;101142.35;109382;1274;23459;-56
2022/02/28 07:51:05;;;;;;;5.00;2.80;;;;;;;-0.78;63.92;101142.66;109266;1274;141968;-55
2022/02/28 07:53:33;;;;;;;7.00;2.80;;;;;;;-0.75;64.04;101140.83;109378;1274;22494;-55
2022/02/28 07:56:01;;;;;;;5.70;3.00;;;;;;;-0.71;64.11;101140.94;109271;1274;137595;-55
2022/02/28 07:58:29;;;;;;;4.30;2.50;;;;;;;-0.64;64.26;101139.40;109337;1274;22387;-55
2022/02/28 08:00:57;;;;;;;7.10;2.80;;;;;;;-0.58;64.20;101138.27;109133;1276;22505;-57
2022/02/28 08:03:25;;;;;;;4.70;2.40;;;;;;;-0.48;63.63;101142.10;109239;1274;137378;-56
2022/02/28 08:05:54;;;;;;;4.90;2.70;;;;;;;-0.40;63.57;101139.55;109218;1276;22446;-55
2022/02/28 08:08:24;;;;;;;4.20;2.40;;;;;;;-0.31;63.15;101142.09;109129;1276;137807;-56
2022/02/28 08:10:52;;;;;;;4.80;2.50;;;;;;;-0.24;62.04;101149.09;109091;1276;22466;-55
2022/02/28 08:13:20;;;;;;;6.00;3.10;;;;;;;-0.20;62.01;101144.27;109121;1276;138714;-55
2022/02/28 08:15:48;;;;;;;4.40;2.40;;;;;;;-0.17;61.42;101150.34;109349;1274;22613;-55
2022/02/28 08:18:16;;;;;;;5.90;2.60;;;;;;;-0.17;60.68;101155.06;109252;1276;22465;-55
2022/02/28 08:20:48;;;;;;;4.40;2.10;;;;;;;-0.20;61.09;101149.25;109127;1275;137390;-55
2022/02/28 08:23:16;;;;;;;5.90;2.50;;;;;;;-0.19;60.73;101145.53;109333;1274;22326;-55
2022/02/28 08:25:45;;;;;;;5.10;2.10;;;;;;;-0.15;60.93;101141.08;108152;1274;137522;-52
2022/02/28 08:28:14;;;;;;;4.80;2.20;;;;;;;-0.13;60.35;101143.14;109348;1274;23317;-53
2022/02/28 08:30:42;;;;;;;3.50;2.00;;;;;;;-0.10;60.43;101137.34;109289;1276;22444;-53
2022/02/28 08:33:15;;;;;;;5.10;2.00;;;;;;;-0.07;60.51;101139.20;109246;1274;137437;-53
2022/02/28 08:35:43;;;;;;;3.40;2.20;;;;;;;-0.05;60.35;101134.67;109341;1274;22532;-53
2022/02/28 08:38:11;;;;;;;4.00;2.30;;;;;;;0.03;60.25;101138.60;109259;1274;138891;-53
2022/02/28 08:40:39;;;;;;;5.80;2.90;;;;;;;0.09;60.14;101141.76;109334;1274;23251;-53
2022/02/28 08:43:07;;;;;;;4.80;2.30;;;;;;;0.16;59.98;101136.23;109350;1274;22456;-53
2022/02/28 08:45:36;;;;;;;6.00;2.70;;;;;;;0.22;59.83;101134.90;109265;1274;137114;-53
2022/02/28 08:48:04;;;;;;;4.70;2.30;;;;;;;0.28;59.28;101133.73;109370;1274;23379;-53
2022/02/28 08:50:32;;;;;;;5.00;2.60;;;;;;;0.33;59.19;101129.84;109266;1274;137195;-53
2022/02/28 08:53:00;;;;;;;4.20;2.30;;;;;;;0.37;59.09;101128.19;109398;1274;22392;-53
2022/02/28 08:55:28;;;;;;;4.40;2.40;;;;;;;0.42;58.69;101129.02;109314;1274;137388;-53
2022/02/28 08:57:57;;;;;;;6.40;2.60;;;;;;;0.47;58.61;101126.16;109448;1274;23266;-53
2022/02/28 09:00:25;;;;;;;4.60;2.30;;;;;;;0.51;58.62;101121.31;109404;1274;23230;-53
2022/02/28 09:02:53;;;;;;;4.90;2.40;;;;;;;0.56;58.98;101127.16;109278;1274;137715;-53
2022/02/28 09:05:24;;;;;;;4.20;2.80;;;;;;;0.62;58.76;101133.88;109462;1274;23146;-53
2022/02/28 09:07:52;;;;;;;3.50;2.30;;;;;;;0.64;57.93;101126.39;109297;1274;137354;-54
2022/02/28 09:10:23;;;;;;;4.70;2.50;;;;;;;0.69;57.74;101125.02;109242;1274;23151;-53
2022/02/28 09:12:52;;;;;;;5.40;2.40;;;;;;;0.74;57.52;101132.73;109411;1274;22711;-52
2022/02/28 09:15:20;;;;;;;6.30;2.50;;;;;;;0.78;57.55;101133.88;109337;1274;137623;-52
2022/02/28 09:17:50;;;;;;;4.80;2.30;;;;;;;0.80;57.48;101124.98;109432;1274;22566;-53
2022/02/28 09:20:19;;;;;;;3.50;2.20;;;;;;;0.81;57.62;101127.02;109319;1274;139449;-52
2022/02/28 09:22:47;;;;;;;3.40;2.30;;;;;;;0.83;57.46;101117.13;109397;1274;22511;-52
2022/02/28 09:25:15;;;;;;;6.20;3.10;;;;;;;0.90;57.69;101118.77;109226;1273;22571;-52
2022/02/28 09:27:43;;;;;;;3.40;2.10;;;;;;;0.96;57.40;101110.39;109078;1274;138835;-53
2022/02/28 09:30:19;;;;;;;4.50;2.50;;;;;;;1.03;56.59;101107.02;109260;1274;22494;-52
2022/02/28 09:32:52;;;;;;;3.90;2.30;;;;;;;1.05;56.33;101106.98;109142;1275;137403;-53
2022/02/28 09:35:24;;;;;;;4.80;2.50;;;;;;;1.09;56.27;101103.89;109356;1275;23271;-53
2022/02/28 09:37:53;;;;;;;6.00;2.10;;;;;;;1.15;56.57;101100.73;109264;1275;139689;-53
2022/02/28 09:40:24;;;;;;;4.70;2.20;;;;;;;1.20;56.15;101096.80;109368;1274;22437;-53
2022/02/28 09:43:22;;;;;;;4.40;2.50;;;;;;;1.27;55.66;101099.30;109265;1274;22502;-53
2022/02/28 09:46:08;;;;;;;5.20;2.50;;;;;;;1.30;55.69;101099.14;109250;1274;23215;-52
2022/02/28 09:49:15;;;;;;;5.30;2.50;;;;;;;1.36;55.53;101094.77;109393;1274;22463;-52
2022/02/28 09:51:46;;;;;;;5.30;2.60;;;;;;;1.39;55.76;101088.95;109251;1274;137304;-53
2022/02/28 09:54:34;;;;;;;;;;;;;;;1.44;55.59;101090.16;109342;1274;22521;-53
2022/02/28 09:57:23;;;;;;;6.00;2.80;;;;;;;1.49;55.27;101088.26;109290;1274;124414;-53
2022/02/28 10:00:06;;;;;;;4.30;3.10;;;;;;;1.51;55.39;101089.34;109266;1274;22443;-52
2022/02/28 10:02:59;;;;;;;5.20;2.80;;;;;;;1.52;55.49;101082.00;109292;1273;137739;-52
2022/02/28 10:05:30;;;;;;;6.20;3.20;;;;;;;1.57;55.75;101089.19;109249;1274;22679;-52
2022/02/28 10:08:01;;;;;;;4.60;2.70;;;;;;;1.62;55.10;101085.09;109283;1274;138831;-53
2022/02/28 10:10:29;;;;;;;5.50;3.00;;;;;;;1.64;55.36;101075.94;109407;1274;22452;-52
2022/02/28 10:12:58;;;;;;;4.60;2.60;;;;;;;1.65;55.23;101072.05;109358;1272;22566;-52
2022/02/28 10:15:27;;;;;;;6.10;3.00;;;;;;;1.66;55.28;101066.89;109295;1274;137591;-52
2022/02/28 10:17:56;;;;;;;6.80;2.90;;;;;;;1.69;55.08;101068.75;109400;1273;23648;-52
2022/02/28 10:20:30;;;;;;;4.80;2.90;;;;;;;1.70;55.15;101065.09;109311;1274;138424;-55
2022/02/28 10:22:59;;;;;;;4.60;3.20;;;;;;;1.71;55.08;101062.09;109459;1274;22510;-52
2022/02/28 10:25:27;;;;;;;5.20;2.70;;;;;;;1.71;54.83;101062.48;108829;1273;22888;-54
2022/02/28 10:28:06;;;;;;;6.30;3.10;;;;;;;1.70;54.69;101046.98;109277;1273;137368;-51
2022/02/28 10:31:02;;;;;;;4.70;2.20;;;;;;;1.76;54.83;101051.09;109144;1274;23324;-55
2022/02/28 10:33:49;;;;;;;3.90;2.20;;;;;;;1.82;54.26;101048.09;109257;1273;138342;-53
2022/02/28 10:36:37;;;;;;;4.00;2.00;;;;;;;1.85;54.45;101040.48;109000;1274;22484;-53
2022/02/28 10:39:10;;;;;;;6.80;3.00;;;;;;;1.92;54.27;101040.69;109274;1274;137329;-53
2022/02/28 10:41:43;;;;;;;3.70;2.40;;;;;;;1.98;53.93;101041.48;109240;1276;22454;-51
2022/02/28 10:44:13;;;;;;;4.70;2.30;;;;;;;2.07;53.65;101040.65;109257;1274;137275;-53
2022/02/28 10:46:43;;;;;;;3.50;1.90;;;;;;;2.14;53.48;101046.15;109415;1274;22427;-53
2022/02/28 10:49:21;;;;;;;5.40;2.20;;;;;;;2.19;53.14;101045.12;109392;1274;22462;-53
2022/02/28 10:52:07;;;;;;;3.30;2.00;;;;;;;2.20;52.48;101045.09;109320;1274;137280;-53
2022/02/28 10:54:39;;;;;;;5.80;2.50;;;;;;;2.23;52.58;101042.86;109381;1274;22592;-53
2022/02/28 10:57:11;;;;;;;4.00;2.10;;;;;;;2.26;52.53;101041.48;109332;1274;137876;-53
2022/02/28 10:59:47;;;;;;;3.50;1.60;;;;;;;2.30;52.84;101033.65;109374;1274;22492;-53
2022/02/28 11:02:31;;;;;;;3.50;1.60;;;;;;;2.35;52.71;101034.69;109301;1274;138700;-53
2022/02/28 11:05:15;;;;;;;4.00;1.80;;;;;;;2.38;52.27;101032.23;109362;1273;22560;-53
2022/02/28 11:07:49;;;;;;;3.20;2.00;;;;;;;2.35;51.61;101028.27;109317;1274;22485;-52
2022/02/28 11:10:18;;;;;;;3.50;1.80;;;;;;;2.34;51.49;101030.02;109253;1274;136973;-53
2022/02/28 11:12:46;;;;;;;4.30;1.60;;;;;;;2.35;51.44;101020.36;109450;1274;22520;-54
2022/02/28 11:15:18;;;;;;;4.10;2.00;;;;;;;2.36;51.35;101015.80;109240;1274;137354;-53
2022/02/28 11:17:46;;;;;;;2.70;1.10;;;;;;;2.38;51.49;101015.84;109380;1274;22600;-53
2022/02/28 11:20:16;;;;;;;3.00;1.60;;;;;;;2.43;51.37;101017.80;109218;1274;138033;-53
2022/02/28 11:22:45;;;;;;;3.50;1.60;;;;;;;2.51;51.01;101022.18;109318;1274;23585;-53
2022/02/28 11:25:16;;;;;;;1.50;1.20;;;;;;;2.52;50.42;101022.41;109395;1274;23723;-53
2022/02/28 11:27:44;;;;;;;4.00;1.20;;;;;;;2.55;50.21;101021.38;109225;1274;138134;-53
2022/02/28 11:30:17;;;;;;;3.40;1.60;;;;;;;2.55;50.03;101019.56;109418;1274;22500;-53
2022/02/28 11:33:04;;;;;;;2.50;1.40;;;;;;;2.56;49.96;101022.19;109304;1274;138006;-53